Terminal Aerodrome Forecast
Issued by NWS Albuquerque, NM

Home | Current Version | Previous Version | Text Only | Print | Product List | Glossary On
Versions: 1 2 3 4 5 6 7 8 9 10 11 12 13
788
FTUS45 KABQ 230532
TAFABQ
TAF
KABQ 230532Z 2306/2406 22012KT P6SM BKN100
     FM230900 18012G20KT P6SM SCT100
     FM231400 22015G25KT P6SM SCT070
     FM231800 26020G30KT P6SM FEW070
     FM232100 28020G30KT P6SM SKC=

USA.gov is the U.S. government's official web portal to all federal, state and local government web resources and services.